createdAt,value
2022-10-01T00:07:41.894Z,975.77
2022-10-01T00:19:42.412Z,976.03
2022-10-01T00:31:42.865Z,975.96
2022-10-01T00:43:43.320Z,975.94
2022-10-01T00:55:44.290Z,975.94
2022-10-01T01:07:44.203Z,975.85
2022-10-01T01:19:44.645Z,975.74
2022-10-01T01:31:45.059Z,975.70
2022-10-01T01:43:45.525Z,975.62
2022-10-01T01:55:45.978Z,975.48
2022-10-01T02:07:46.497Z,975.36
2022-10-01T02:19:46.907Z,975.45
2022-10-01T02:31:47.357Z,975.43
2022-10-01T02:43:47.848Z,975.55
2022-10-01T02:55:48.256Z,975.53
2022-10-01T03:07:48.698Z,975.54
2022-10-01T03:19:49.168Z,975.63
2022-10-01T03:31:49.649Z,975.65
2022-10-01T03:43:50.063Z,975.88
2022-10-01T03:55:50.546Z,975.89
2022-10-01T04:07:50.998Z,975.89
2022-10-01T04:19:51.471Z,975.88
2022-10-01T04:31:51.918Z,975.74
2022-10-01T04:43:52.386Z,975.78
2022-10-01T04:55:52.808Z,975.93
2022-10-01T05:07:53.239Z,976.03
2022-10-01T05:19:53.718Z,976.02
2022-10-01T05:31:54.173Z,975.91
2022-10-01T05:43:54.620Z,976.05
2022-10-01T05:55:55.091Z,976.15
2022-10-01T06:07:55.489Z,975.99
2022-10-01T06:19:55.976Z,976.14
2022-10-01T06:31:56.442Z,976.15
2022-10-01T06:43:56.894Z,976.08
2022-10-01T06:55:57.350Z,976.04
2022-10-01T07:07:57.790Z,976.00
2022-10-01T07:19:58.217Z,975.93
2022-10-01T07:31:58.757Z,975.83
2022-10-01T07:43:59.140Z,975.98
2022-10-01T07:55:59.594Z,976.03
2022-10-01T08:08:00.050Z,975.97
2022-10-01T08:20:00.498Z,975.92
2022-10-01T08:32:00.993Z,976.10
2022-10-01T08:44:01.416Z,976.11
2022-10-01T08:56:01.834Z,976.19
2022-10-01T09:08:02.315Z,976.09
2022-10-01T09:20:03.171Z,975.97
2022-10-01T09:32:03.271Z,975.91
2022-10-01T09:44:03.675Z,975.97
2022-10-01T09:56:04.249Z,976.06
2022-10-01T10:08:04.580Z,976.14
2022-10-01T10:20:05.088Z,975.95
2022-10-01T10:32:05.536Z,975.95
2022-10-01T10:44:05.980Z,975.87
2022-10-01T10:56:06.411Z,975.74
2022-10-01T11:08:06.875Z,975.63
2022-10-01T11:20:07.322Z,975.48
2022-10-01T11:32:07.787Z,975.31
2022-10-01T11:44:08.229Z,975.26
2022-10-01T11:56:08.714Z,975.14
2022-10-01T12:08:09.115Z,974.94
2022-10-01T12:20:09.733Z,974.90
2022-10-01T12:32:10.093Z,974.78
2022-10-01T12:44:10.534Z,974.55
2022-10-01T12:56:10.978Z,974.41
2022-10-01T13:08:11.459Z,974.39
2022-10-01T13:20:11.900Z,974.23
2022-10-01T13:32:12.364Z,974.11
2022-10-01T13:44:12.766Z,974.07
2022-10-01T13:56:13.251Z,974.17
2022-10-01T14:08:13.672Z,974.14
2022-10-01T14:20:14.155Z,974.19
2022-10-01T14:32:14.582Z,974.27
2022-10-01T14:44:15.082Z,974.22
2022-10-01T14:56:15.529Z,974.02
2022-10-01T15:08:15.944Z,974.18
2022-10-01T15:20:16.394Z,974.22
2022-10-01T15:32:16.903Z,974.16
2022-10-01T15:44:17.308Z,974.23
2022-10-01T15:56:17.754Z,974.05
2022-10-01T16:08:18.229Z,974.19
2022-10-01T16:20:18.686Z,974.19
2022-10-01T16:32:19.156Z,974.43
2022-10-01T16:44:19.595Z,974.70
2022-10-01T16:56:24.827Z,974.30
2022-10-01T17:08:20.510Z,974.19
2022-10-01T17:20:20.954Z,974.61
2022-10-01T17:32:21.383Z,974.72
2022-10-01T17:44:21.869Z,974.90
2022-10-01T17:56:22.352Z,974.92
2022-10-01T18:08:33.272Z,975.05
2022-10-01T18:20:23.231Z,975.27
2022-10-01T18:32:23.713Z,975.22
2022-10-01T18:44:24.157Z,975.24
2022-10-01T18:56:24.551Z,975.28
2022-10-01T19:08:25.030Z,975.47
2022-10-01T19:20:25.457Z,975.48
2022-10-01T19:32:25.999Z,975.52
2022-10-01T19:44:26.404Z,975.98
2022-10-01T19:56:26.821Z,976.22
2022-10-01T20:08:27.297Z,976.16
2022-10-01T20:20:27.797Z,976.15
2022-10-01T20:32:28.243Z,976.13
2022-10-01T20:44:28.730Z,976.29
2022-10-01T20:56:29.117Z,976.49
2022-10-01T21:08:29.536Z,976.57
2022-10-01T21:20:30.016Z,976.61
2022-10-01T21:32:30.499Z,976.58
2022-10-01T21:44:30.925Z,976.77
2022-10-01T21:56:31.403Z,977.03
2022-10-01T22:12:26.031Z,977.08
2022-10-01T22:24:26.454Z,977.24
2022-10-01T22:36:26.921Z,977.47
2022-10-01T22:48:27.392Z,977.50
2022-10-01T23:00:27.811Z,977.44
2022-10-01T23:12:28.260Z,977.49
2022-10-01T23:24:28.698Z,977.72
2022-10-01T23:36:29.211Z,977.70
2022-10-01T23:48:29.657Z,978.21
